sensor_id;sensor_type;location;lat;lon;timestamp;P1;durP1;ratioP1;P2;durP2;ratioP2
45326;SDS011;31062;49.678;24.560;2023-12-20T00:02:35;12.43;;;6.20;;
45326;SDS011;31062;49.678;24.560;2023-12-20T00:05:41;9.85;;;5.05;;
45326;SDS011;31062;49.678;24.560;2023-12-20T00:08:47;8.68;;;5.10;;
45326;SDS011;31062;49.678;24.560;2023-12-20T00:11:53;8.27;;;5.13;;
45326;SDS011;31062;49.678;24.560;2023-12-20T00:15:00;8.55;;;5.45;;
45326;SDS011;31062;49.678;24.560;2023-12-20T00:18:06;8.85;;;5.90;;
45326;SDS011;31062;49.678;24.560;2023-12-20T00:21:12;7.32;;;5.20;;
45326;SDS011;31062;49.678;24.560;2023-12-20T00:24:18;10.77;;;6.10;;
45326;SDS011;31062;49.678;24.560;2023-12-20T00:27:24;6.85;;;5.18;;
45326;SDS011;31062;49.678;24.560;2023-12-20T00:30:31;8.15;;;4.60;;
45326;SDS011;31062;49.678;24.560;2023-12-20T00:33:37;5.20;;;4.03;;
45326;SDS011;31062;49.678;24.560;2023-12-20T00:36:42;9.57;;;4.20;;
45326;SDS011;31062;49.678;24.560;2023-12-20T00:39:48;7.03;;;4.50;;
45326;SDS011;31062;49.678;24.560;2023-12-20T00:42:54;11.90;;;4.53;;
45326;SDS011;31062;49.678;24.560;2023-12-20T00:46:00;9.77;;;5.38;;
45326;SDS011;31062;49.678;24.560;2023-12-20T00:49:05;12.05;;;7.43;;
45326;SDS011;31062;49.678;24.560;2023-12-20T00:52:12;13.73;;;7.75;;
45326;SDS011;31062;49.678;24.560;2023-12-20T00:55:18;13.77;;;6.65;;
45326;SDS011;31062;49.678;24.560;2023-12-20T00:58:23;14.55;;;7.50;;
45326;SDS011;31062;49.678;24.560;2023-12-20T01:01:29;13.43;;;7.65;;
45326;SDS011;31062;49.678;24.560;2023-12-20T01:04:35;16.30;;;8.60;;
45326;SDS011;31062;49.678;24.560;2023-12-20T01:07:41;20.90;;;8.50;;
45326;SDS011;31062;49.678;24.560;2023-12-20T01:10:47;20.33;;;9.02;;
45326;SDS011;31062;49.678;24.560;2023-12-20T01:13:53;19.88;;;10.77;;
45326;SDS011;31062;49.678;24.560;2023-12-20T01:16:59;20.52;;;10.02;;
45326;SDS011;31062;49.678;24.560;2023-12-20T01:20:05;17.75;;;9.40;;
45326;SDS011;31062;49.678;24.560;2023-12-20T01:23:11;22.80;;;10.48;;
45326;SDS011;31062;49.678;24.560;2023-12-20T01:26:17;14.73;;;7.88;;
45326;SDS011;31062;49.678;24.560;2023-12-20T01:29:22;17.00;;;7.55;;
45326;SDS011;31062;49.678;24.560;2023-12-20T01:32:28;13.57;;;7.40;;
45326;SDS011;31062;49.678;24.560;2023-12-20T01:35:34;12.48;;;6.40;;
45326;SDS011;31062;49.678;24.560;2023-12-20T01:38:41;10.27;;;5.07;;
45326;SDS011;31062;49.678;24.560;2023-12-20T01:41:50;9.25;;;5.25;;
45326;SDS011;31062;49.678;24.560;2023-12-20T01:44:55;16.00;;;8.88;;
45326;SDS011;31062;49.678;24.560;2023-12-20T01:48:01;11.23;;;6.65;;
45326;SDS011;31062;49.678;24.560;2023-12-20T01:51:09;10.88;;;6.15;;
45326;SDS011;31062;49.678;24.560;2023-12-20T01:54:16;8.27;;;5.57;;
45326;SDS011;31062;49.678;24.560;2023-12-20T01:57:24;10.00;;;6.03;;
45326;SDS011;31062;49.678;24.560;2023-12-20T02:00:30;9.50;;;6.38;;
45326;SDS011;31062;49.678;24.560;2023-12-20T02:03:36;8.98;;;5.72;;
45326;SDS011;31062;49.678;24.560;2023-12-20T02:06:43;9.00;;;4.70;;
45326;SDS011;31062;49.678;24.560;2023-12-20T02:09:51;8.20;;;4.70;;
45326;SDS011;31062;49.678;24.560;2023-12-20T02:12:58;8.55;;;5.05;;
45326;SDS011;31062;49.678;24.560;2023-12-20T02:16:03;8.18;;;4.78;;
45326;SDS011;31062;49.678;24.560;2023-12-20T02:19:13;8.68;;;5.13;;
45326;SDS011;31062;49.678;24.560;2023-12-20T02:22:23;6.65;;;4.57;;
45326;SDS011;31062;49.678;24.560;2023-12-20T02:25:29;8.07;;;5.15;;
45326;SDS011;31062;49.678;24.560;2023-12-20T02:28:34;9.93;;;5.32;;
45326;SDS011;31062;49.678;24.560;2023-12-20T02:31:41;9.07;;;5.47;;
45326;SDS011;31062;49.678;24.560;2023-12-20T02:34:47;10.27;;;5.90;;
45326;SDS011;31062;49.678;24.560;2023-12-20T02:37:53;9.00;;;4.95;;
45326;SDS011;31062;49.678;24.560;2023-12-20T02:40:59;12.85;;;7.00;;
45326;SDS011;31062;49.678;24.560;2023-12-20T02:44:04;11.13;;;5.65;;
45326;SDS011;31062;49.678;24.560;2023-12-20T02:47:11;8.85;;;6.05;;
45326;SDS011;31062;49.678;24.560;2023-12-20T02:50:18;17.48;;;8.35;;
45326;SDS011;31062;49.678;24.560;2023-12-20T02:53:24;25.80;;;11.43;;
45326;SDS011;31062;49.678;24.560;2023-12-20T02:56:30;18.75;;;9.43;;
45326;SDS011;31062;49.678;24.560;2023-12-20T02:59:37;15.13;;;7.38;;
45326;SDS011;31062;49.678;24.560;2023-12-20T03:02:42;14.63;;;7.60;;
45326;SDS011;31062;49.678;24.560;2023-12-20T03:05:48;18.67;;;9.57;;
45326;SDS011;31062;49.678;24.560;2023-12-20T03:08:54;20.00;;;11.45;;
45326;SDS011;31062;49.678;24.560;2023-12-20T03:12:00;21.70;;;10.43;;
45326;SDS011;31062;49.678;24.560;2023-12-20T03:15:07;19.13;;;10.70;;
45326;SDS011;31062;49.678;24.560;2023-12-20T03:18:13;21.13;;;10.82;;
45326;SDS011;31062;49.678;24.560;2023-12-20T03:21:19;19.80;;;10.27;;
45326;SDS011;31062;49.678;24.560;2023-12-20T03:24:25;27.40;;;11.88;;
45326;SDS011;31062;49.678;24.560;2023-12-20T03:27:31;21.08;;;10.93;;
45326;SDS011;31062;49.678;24.560;2023-12-20T03:30:37;24.35;;;9.95;;
45326;SDS011;31062;49.678;24.560;2023-12-20T03:33:43;17.58;;;9.32;;
45326;SDS011;31062;49.678;24.560;2023-12-20T03:36:49;22.33;;;10.07;;
45326;SDS011;31062;49.678;24.560;2023-12-20T03:39:56;31.73;;;11.73;;
45326;SDS011;31062;49.678;24.560;2023-12-20T03:43:01;40.75;;;13.73;;
45326;SDS011;31062;49.678;24.560;2023-12-20T03:46:10;44.85;;;14.23;;
45326;SDS011;31062;49.678;24.560;2023-12-20T03:49:15;29.23;;;12.80;;
45326;SDS011;31062;49.678;24.560;2023-12-20T03:52:01;25.05;;;12.65;;
45326;SDS011;31062;49.678;24.560;2023-12-20T03:54:47;32.05;;;12.13;;
45326;SDS011;31062;49.678;24.560;2023-12-20T03:57:33;26.40;;;10.20;;
45326;SDS011;31062;49.678;24.560;2023-12-20T04:00:39;18.40;;;10.20;;
45326;SDS011;31062;49.678;24.560;2023-12-20T04:03:45;40.38;;;16.13;;
45326;SDS011;31062;49.678;24.560;2023-12-20T04:06:50;42.45;;;17.48;;
45326;SDS011;31062;49.678;24.560;2023-12-20T04:09:56;43.55;;;17.75;;
45326;SDS011;31062;49.678;24.560;2023-12-20T04:13:03;47.97;;;20.45;;
45326;SDS011;31062;49.678;24.560;2023-12-20T04:16:09;37.60;;;17.23;;
45326;SDS011;31062;49.678;24.560;2023-12-20T04:19:15;29.55;;;14.55;;
45326;SDS011;31062;49.678;24.560;2023-12-20T04:22:20;33.85;;;15.55;;
45326;SDS011;31062;49.678;24.560;2023-12-20T04:25:26;24.23;;;11.65;;
45326;SDS011;31062;49.678;24.560;2023-12-20T04:28:32;21.27;;;9.77;;
45326;SDS011;31062;49.678;24.560;2023-12-20T04:31:39;21.00;;;10.43;;
45326;SDS011;31062;49.678;24.560;2023-12-20T04:34:44;18.35;;;9.23;;
45326;SDS011;31062;49.678;24.560;2023-12-20T04:37:50;20.45;;;10.77;;
45326;SDS011;31062;49.678;24.560;2023-12-20T04:40:57;24.27;;;12.20;;
45326;SDS011;31062;49.678;24.560;2023-12-20T04:44:03;23.88;;;11.63;;
45326;SDS011;31062;49.678;24.560;2023-12-20T04:47:09;16.83;;;11.02;;
45326;SDS011;31062;49.678;24.560;2023-12-20T04:50:14;19.38;;;10.07;;
45326;SDS011;31062;49.678;24.560;2023-12-20T04:53:20;19.20;;;9.10;;
45326;SDS011;31062;49.678;24.560;2023-12-20T04:56:26;17.60;;;8.85;;
45326;SDS011;31062;49.678;24.560;2023-12-20T04:59:32;91.07;;;24.80;;
45326;SDS011;31062;49.678;24.560;2023-12-20T05:02:38;41.20;;;13.75;;
45326;SDS011;31062;49.678;24.560;2023-12-20T05:05:45;21.90;;;10.95;;
45326;SDS011;31062;49.678;24.560;2023-12-20T05:08:53;16.10;;;9.88;;
45326;SDS011;31062;49.678;24.560;2023-12-20T05:11:58;17.58;;;8.70;;
45326;SDS011;31062;49.678;24.560;2023-12-20T05:15:07;52.83;;;17.45;;
45326;SDS011;31062;49.678;24.560;2023-12-20T05:18:13;45.70;;;16.88;;
45326;SDS011;31062;49.678;24.560;2023-12-20T05:21:20;52.20;;;17.98;;
45326;SDS011;31062;49.678;24.560;2023-12-20T05:24:26;56.05;;;17.77;;
45326;SDS011;31062;49.678;24.560;2023-12-20T05:27:31;44.35;;;16.75;;
45326;SDS011;31062;49.678;24.560;2023-12-20T05:30:37;38.97;;;14.23;;
45326;SDS011;31062;49.678;24.560;2023-12-20T05:33:44;39.22;;;14.65;;
45326;SDS011;31062;49.678;24.560;2023-12-20T05:36:51;40.90;;;14.30;;
45326;SDS011;31062;49.678;24.560;2023-12-20T05:39:56;45.50;;;17.20;;
45326;SDS011;31062;49.678;24.560;2023-12-20T05:43:02;35.58;;;15.32;;
45326;SDS011;31062;49.678;24.560;2023-12-20T05:46:09;23.38;;;12.25;;
45326;SDS011;31062;49.678;24.560;2023-12-20T05:49:15;24.75;;;12.27;;
45326;SDS011;31062;49.678;24.560;2023-12-20T05:52:21;43.85;;;18.05;;
45326;SDS011;31062;49.678;24.560;2023-12-20T05:55:27;90.22;;;35.22;;
45326;SDS011;31062;49.678;24.560;2023-12-20T05:58:33;91.53;;;34.17;;
45326;SDS011;31062;49.678;24.560;2023-12-20T06:01:39;54.55;;;23.80;;
45326;SDS011;31062;49.678;24.560;2023-12-20T06:04:45;51.58;;;24.80;;
45326;SDS011;31062;49.678;24.560;2023-12-20T06:07:52;52.22;;;22.60;;
45326;SDS011;31062;49.678;24.560;2023-12-20T06:10:57;75.32;;;32.10;;
45326;SDS011;31062;49.678;24.560;2023-12-20T06:14:04;82.25;;;33.97;;
45326;SDS011;31062;49.678;24.560;2023-12-20T06:17:11;71.82;;;26.42;;
45326;SDS011;31062;49.678;24.560;2023-12-20T06:20:17;56.22;;;23.42;;
45326;SDS011;31062;49.678;24.560;2023-12-20T06:23:23;50.42;;;20.65;;
45326;SDS011;31062;49.678;24.560;2023-12-20T06:26:29;46.83;;;20.92;;
45326;SDS011;31062;49.678;24.560;2023-12-20T06:29:35;47.83;;;19.15;;
45326;SDS011;31062;49.678;24.560;2023-12-20T06:32:41;38.42;;;17.85;;
45326;SDS011;31062;49.678;24.560;2023-12-20T06:35:46;60.05;;;22.35;;
45326;SDS011;31062;49.678;24.560;2023-12-20T06:38:33;45.38;;;21.45;;
45326;SDS011;31062;49.678;24.560;2023-12-20T06:41:18;53.30;;;22.40;;
45326;SDS011;31062;49.678;24.560;2023-12-20T06:44:24;57.60;;;25.42;;
45326;SDS011;31062;49.678;24.560;2023-12-20T06:47:30;74.85;;;28.17;;
45326;SDS011;31062;49.678;24.560;2023-12-20T06:50:35;71.78;;;34.88;;
45326;SDS011;31062;49.678;24.560;2023-12-20T06:53:42;82.38;;;32.78;;
45326;SDS011;31062;49.678;24.560;2023-12-20T06:56:49;69.32;;;28.42;;
45326;SDS011;31062;49.678;24.560;2023-12-20T06:59:54;66.20;;;29.52;;
45326;SDS011;31062;49.678;24.560;2023-12-20T07:03:00;80.97;;;32.80;;
45326;SDS011;31062;49.678;24.560;2023-12-20T07:05:47;77.72;;;35.78;;
45326;SDS011;31062;49.678;24.560;2023-12-20T07:08:32;74.72;;;30.92;;
45326;SDS011;31062;49.678;24.560;2023-12-20T07:11:18;61.88;;;28.15;;
45326;SDS011;31062;49.678;24.560;2023-12-20T07:14:04;68.95;;;31.33;;
45326;SDS011;31062;49.678;24.560;2023-12-20T07:16:51;67.05;;;29.30;;
45326;SDS011;31062;49.678;24.560;2023-12-20T07:19:37;67.25;;;26.92;;
45326;SDS011;31062;49.678;24.560;2023-12-20T07:22:24;51.40;;;23.58;;
45326;SDS011;31062;49.678;24.560;2023-12-20T07:25:10;45.50;;;21.40;;
45326;SDS011;31062;49.678;24.560;2023-12-20T07:28:16;51.05;;;22.10;;
45326;SDS011;31062;49.678;24.560;2023-12-20T07:31:22;116.55;;;41.05;;
45326;SDS011;31062;49.678;24.560;2023-12-20T07:34:27;83.38;;;31.75;;
45326;SDS011;31062;49.678;24.560;2023-12-20T07:37:33;79.45;;;34.97;;
45326;SDS011;31062;49.678;24.560;2023-12-20T07:40:39;93.22;;;36.08;;
45326;SDS011;31062;49.678;24.560;2023-12-20T07:43:45;112.25;;;40.17;;
45326;SDS011;31062;49.678;24.560;2023-12-20T07:46:50;99.55;;;38.65;;
45326;SDS011;31062;49.678;24.560;2023-12-20T07:49:56;80.75;;;31.75;;
45326;SDS011;31062;49.678;24.560;2023-12-20T07:53:02;39.58;;;17.35;;
45326;SDS011;31062;49.678;24.560;2023-12-20T07:56:15;22.05;;;11.07;;
45326;SDS011;31062;49.678;24.560;2023-12-20T07:59:21;20.58;;;9.52;;
45326;SDS011;31062;49.678;24.560;2023-12-20T08:02:27;14.98;;;7.28;;
45326;SDS011;31062;49.678;24.560;2023-12-20T08:05:33;10.50;;;6.90;;
45326;SDS011;31062;49.678;24.560;2023-12-20T08:08:40;24.95;;;13.52;;
45326;SDS011;31062;49.678;24.560;2023-12-20T08:11:51;18.15;;;10.65;;
45326;SDS011;31062;49.678;24.560;2023-12-20T08:14:57;26.27;;;15.48;;
45326;SDS011;31062;49.678;24.560;2023-12-20T08:18:03;25.25;;;16.40;;
45326;SDS011;31062;49.678;24.560;2023-12-20T08:21:09;21.13;;;14.82;;
45326;SDS011;31062;49.678;24.560;2023-12-20T08:24:16;25.77;;;11.95;;
45326;SDS011;31062;49.678;24.560;2023-12-20T08:27:22;18.35;;;11.70;;
45326;SDS011;31062;49.678;24.560;2023-12-20T08:30:27;20.02;;;12.13;;
45326;SDS011;31062;49.678;24.560;2023-12-20T08:33:34;21.67;;;13.20;;
45326;SDS011;31062;49.678;24.560;2023-12-20T08:36:40;20.85;;;11.85;;
45326;SDS011;31062;49.678;24.560;2023-12-20T08:39:45;15.93;;;9.50;;
45326;SDS011;31062;49.678;24.560;2023-12-20T08:42:51;14.23;;;9.38;;
45326;SDS011;31062;49.678;24.560;2023-12-20T08:45:57;24.27;;;11.02;;
45326;SDS011;31062;49.678;24.560;2023-12-20T08:49:03;17.38;;;11.00;;
45326;SDS011;31062;49.678;24.560;2023-12-20T08:52:10;17.13;;;9.82;;
45326;SDS011;31062;49.678;24.560;2023-12-20T08:55:15;12.57;;;7.97;;
45326;SDS011;31062;49.678;24.560;2023-12-20T08:58:21;11.50;;;6.75;;
45326;SDS011;31062;49.678;24.560;2023-12-20T09:01:27;8.93;;;6.22;;
45326;SDS011;31062;49.678;24.560;2023-12-20T09:04:33;13.40;;;6.15;;
45326;SDS011;31062;49.678;24.560;2023-12-20T09:07:38;12.40;;;7.35;;
45326;SDS011;31062;49.678;24.560;2023-12-20T09:10:44;11.40;;;6.78;;
45326;SDS011;31062;49.678;24.560;2023-12-20T09:13:50;17.08;;;11.10;;
45326;SDS011;31062;49.678;24.560;2023-12-20T09:16:56;20.88;;;11.43;;
45326;SDS011;31062;49.678;24.560;2023-12-20T09:20:02;18.52;;;10.68;;
45326;SDS011;31062;49.678;24.560;2023-12-20T09:23:09;15.30;;;9.50;;
45326;SDS011;31062;49.678;24.560;2023-12-20T09:26:14;12.38;;;7.97;;
45326;SDS011;31062;49.678;24.560;2023-12-20T09:29:20;9.45;;;6.30;;
45326;SDS011;31062;49.678;24.560;2023-12-20T09:32:26;13.88;;;7.07;;
45326;SDS011;31062;49.678;24.560;2023-12-20T09:35:32;14.45;;;8.02;;
45326;SDS011;31062;49.678;24.560;2023-12-20T09:38:39;15.88;;;8.30;;
45326;SDS011;31062;49.678;24.560;2023-12-20T09:41:45;17.80;;;6.43;;
45326;SDS011;31062;49.678;24.560;2023-12-20T09:44:54;5.97;;;4.22;;
45326;SDS011;31062;49.678;24.560;2023-12-20T09:47:41;4.60;;;3.33;;
45326;SDS011;31062;49.678;24.560;2023-12-20T09:50:28;4.47;;;3.13;;
45326;SDS011;31062;49.678;24.560;2023-12-20T09:53:17;4.78;;;3.10;;
45326;SDS011;31062;49.678;24.560;2023-12-20T09:56:08;4.18;;;2.90;;
45326;SDS011;31062;49.678;24.560;2023-12-20T09:58:53;3.50;;;2.75;;
45326;SDS011;31062;49.678;24.560;2023-12-20T10:01:40;5.72;;;3.72;;
45326;SDS011;31062;49.678;24.560;2023-12-20T10:04:27;5.90;;;2.92;;
45326;SDS011;31062;49.678;24.560;2023-12-20T10:07:15;3.85;;;2.95;;
45326;SDS011;31062;49.678;24.560;2023-12-20T10:10:01;4.72;;;3.25;;
45326;SDS011;31062;49.678;24.560;2023-12-20T10:15:54;5.82;;;3.20;;
45326;SDS011;31062;49.678;24.560;2023-12-20T10:18:40;5.63;;;3.42;;
45326;SDS011;31062;49.678;24.560;2023-12-20T10:21:26;7.18;;;4.57;;
45326;SDS011;31062;49.678;24.560;2023-12-20T10:24:19;5.30;;;3.88;;
45326;SDS011;31062;49.678;24.560;2023-12-20T10:27:05;5.82;;;3.90;;
45326;SDS011;31062;49.678;24.560;2023-12-20T10:29:52;5.53;;;3.78;;
45326;SDS011;31062;49.678;24.560;2023-12-20T10:32:39;6.25;;;3.85;;
45326;SDS011;31062;49.678;24.560;2023-12-20T10:35:24;6.20;;;3.80;;
45326;SDS011;31062;49.678;24.560;2023-12-20T10:38:11;6.15;;;4.15;;
45326;SDS011;31062;49.678;24.560;2023-12-20T10:41:00;6.25;;;4.38;;
45326;SDS011;31062;49.678;24.560;2023-12-20T10:44:09;7.22;;;4.53;;
45326;SDS011;31062;49.678;24.560;2023-12-20T10:47:16;4.82;;;3.88;;
45326;SDS011;31062;49.678;24.560;2023-12-20T10:50:26;3.38;;;2.72;;
45326;SDS011;31062;49.678;24.560;2023-12-20T10:53:32;5.50;;;3.10;;
45326;SDS011;31062;49.678;24.560;2023-12-20T10:56:39;5.93;;;3.20;;
45326;SDS011;31062;49.678;24.560;2023-12-20T10:59:45;4.13;;;3.10;;
45326;SDS011;31062;49.678;24.560;2023-12-20T11:02:53;5.57;;;3.75;;
45326;SDS011;31062;49.678;24.560;2023-12-20T11:06:17;5.78;;;3.50;;
45326;SDS011;31062;49.678;24.560;2023-12-20T11:09:31;6.00;;;3.92;;
45326;SDS011;31062;49.678;24.560;2023-12-20T11:15:58;8.88;;;3.53;;
45326;SDS011;31062;49.678;24.560;2023-12-20T11:19:06;6.75;;;3.40;;
45326;SDS011;31062;49.678;24.560;2023-12-20T11:22:12;4.13;;;3.22;;
45326;SDS011;31062;49.678;24.560;2023-12-20T11:25:25;3.83;;;3.13;;
45326;SDS011;31062;49.678;24.560;2023-12-20T11:28:32;3.90;;;2.40;;
45326;SDS011;31062;49.678;24.560;2023-12-20T11:31:40;7.78;;;4.63;;
45326;SDS011;31062;49.678;24.560;2023-12-20T11:34:46;5.90;;;2.90;;
45326;SDS011;31062;49.678;24.560;2023-12-20T11:37:52;4.90;;;3.03;;
45326;SDS011;31062;49.678;24.560;2023-12-20T11:40:38;2.70;;;2.22;;
45326;SDS011;31062;49.678;24.560;2023-12-20T11:43:57;2.58;;;2.38;;
45326;SDS011;31062;49.678;24.560;2023-12-20T11:46:38;11.82;;;5.20;;
45326;SDS011;31062;49.678;24.560;2023-12-20T11:49:24;5.40;;;4.22;;
45326;SDS011;31062;49.678;24.560;2023-12-20T11:52:12;8.85;;;4.80;;
45326;SDS011;31062;49.678;24.560;2023-12-20T11:55:18;8.40;;;5.90;;
45326;SDS011;31062;49.678;24.560;2023-12-20T11:58:24;12.27;;;7.03;;
45326;SDS011;31062;49.678;24.560;2023-12-20T12:01:33;4.40;;;3.38;;
45326;SDS011;31062;49.678;24.560;2023-12-20T12:04:42;4.47;;;3.67;;
45326;SDS011;31062;49.678;24.560;2023-12-20T12:07:48;7.93;;;5.43;;
45326;SDS011;31062;49.678;24.560;2023-12-20T12:10:54;5.97;;;4.35;;
45326;SDS011;31062;49.678;24.560;2023-12-20T12:14:00;7.10;;;4.47;;
45326;SDS011;31062;49.678;24.560;2023-12-20T12:17:12;3.95;;;3.08;;
45326;SDS011;31062;49.678;24.560;2023-12-20T12:20:21;4.40;;;3.38;;
45326;SDS011;31062;49.678;24.560;2023-12-20T12:23:28;7.78;;;4.53;;
45326;SDS011;31062;49.678;24.560;2023-12-20T12:26:33;6.55;;;3.95;;
45326;SDS011;31062;49.678;24.560;2023-12-20T12:29:39;9.70;;;4.18;;
45326;SDS011;31062;49.678;24.560;2023-12-20T12:32:46;8.20;;;4.25;;
45326;SDS011;31062;49.678;24.560;2023-12-20T12:35:53;10.50;;;5.60;;
45326;SDS011;31062;49.678;24.560;2023-12-20T12:39:02;9.52;;;6.28;;
45326;SDS011;31062;49.678;24.560;2023-12-20T12:42:08;10.23;;;5.53;;
45326;SDS011;31062;49.678;24.560;2023-12-20T12:45:13;7.88;;;5.50;;
45326;SDS011;31062;49.678;24.560;2023-12-20T12:48:19;10.45;;;6.20;;
45326;SDS011;31062;49.678;24.560;2023-12-20T12:51:29;11.15;;;6.10;;
45326;SDS011;31062;49.678;24.560;2023-12-20T12:54:14;13.73;;;7.85;;
45326;SDS011;31062;49.678;24.560;2023-12-20T12:57:01;20.42;;;8.88;;
45326;SDS011;31062;49.678;24.560;2023-12-20T12:59:48;13.95;;;7.25;;
45326;SDS011;31062;49.678;24.560;2023-12-20T13:02:34;10.20;;;6.90;;
45326;SDS011;31062;49.678;24.560;2023-12-20T13:05:19;13.98;;;7.78;;
45326;SDS011;31062;49.678;24.560;2023-12-20T13:08:05;12.25;;;6.20;;
45326;SDS011;31062;49.678;24.560;2023-12-20T13:10:52;11.55;;;6.43;;
45326;SDS011;31062;49.678;24.560;2023-12-20T13:13:38;8.57;;;5.13;;
45326;SDS011;31062;49.678;24.560;2023-12-20T13:16:23;8.07;;;5.70;;
45326;SDS011;31062;49.678;24.560;2023-12-20T13:19:10;10.85;;;6.68;;
45326;SDS011;31062;49.678;24.560;2023-12-20T13:22:15;10.77;;;6.50;;
45326;SDS011;31062;49.678;24.560;2023-12-20T13:25:22;14.95;;;6.82;;
45326;SDS011;31062;49.678;24.560;2023-12-20T13:28:27;9.52;;;5.45;;
45326;SDS011;31062;49.678;24.560;2023-12-20T13:31:33;12.43;;;6.18;;
45326;SDS011;31062;49.678;24.560;2023-12-20T13:34:39;13.57;;;8.88;;
45326;SDS011;31062;49.678;24.560;2023-12-20T13:37:45;28.67;;;14.38;;
45326;SDS011;31062;49.678;24.560;2023-12-20T13:40:51;25.50;;;14.20;;
45326;SDS011;31062;49.678;24.560;2023-12-20T13:43:56;15.63;;;10.07;;
45326;SDS011;31062;49.678;24.560;2023-12-20T13:47:02;12.05;;;7.43;;
45326;SDS011;31062;49.678;24.560;2023-12-20T13:50:09;9.38;;;6.78;;
45326;SDS011;31062;49.678;24.560;2023-12-20T13:53:15;10.63;;;7.63;;
45326;SDS011;31062;49.678;24.560;2023-12-20T13:56:21;11.70;;;7.00;;
45326;SDS011;31062;49.678;24.560;2023-12-20T13:59:41;10.18;;;6.30;;
45326;SDS011;31062;49.678;24.560;2023-12-20T14:02:51;16.23;;;8.85;;
45326;SDS011;31062;49.678;24.560;2023-12-20T14:05:57;17.80;;;8.63;;
45326;SDS011;31062;49.678;24.560;2023-12-20T14:09:03;13.73;;;8.07;;
45326;SDS011;31062;49.678;24.560;2023-12-20T14:12:08;11.35;;;7.40;;
45326;SDS011;31062;49.678;24.560;2023-12-20T14:15:14;21.38;;;9.32;;
45326;SDS011;31062;49.678;24.560;2023-12-20T14:18:21;10.38;;;6.72;;
45326;SDS011;31062;49.678;24.560;2023-12-20T14:21:27;18.55;;;9.80;;
45326;SDS011;31062;49.678;24.560;2023-12-20T14:24:32;14.50;;;8.55;;
45326;SDS011;31062;49.678;24.560;2023-12-20T14:27:39;16.92;;;9.55;;
45326;SDS011;31062;49.678;24.560;2023-12-20T14:30:50;14.33;;;7.77;;
45326;SDS011;31062;49.678;24.560;2023-12-20T14:33:56;18.13;;;9.57;;
45326;SDS011;31062;49.678;24.560;2023-12-20T14:37:02;15.20;;;9.48;;
45326;SDS011;31062;49.678;24.560;2023-12-20T14:40:09;12.98;;;8.35;;
45326;SDS011;31062;49.678;24.560;2023-12-20T14:43:15;15.20;;;8.77;;
45326;SDS011;31062;49.678;24.560;2023-12-20T14:46:22;10.23;;;7.10;;
45326;SDS011;31062;49.678;24.560;2023-12-20T14:49:27;14.07;;;7.03;;
45326;SDS011;31062;49.678;24.560;2023-12-20T14:52:33;14.10;;;6.70;;
45326;SDS011;31062;49.678;24.560;2023-12-20T14:55:39;10.65;;;6.43;;
45326;SDS011;31062;49.678;24.560;2023-12-20T14:58:45;10.85;;;6.07;;
45326;SDS011;31062;49.678;24.560;2023-12-20T15:01:51;7.43;;;5.00;;
45326;SDS011;31062;49.678;24.560;2023-12-20T15:04:58;6.85;;;4.63;;
45326;SDS011;31062;49.678;24.560;2023-12-20T15:08:03;8.32;;;5.15;;
45326;SDS011;31062;49.678;24.560;2023-12-20T15:11:10;11.73;;;5.60;;
45326;SDS011;31062;49.678;24.560;2023-12-20T15:14:16;11.18;;;6.80;;
45326;SDS011;31062;49.678;24.560;2023-12-20T15:17:22;18.42;;;10.45;;
45326;SDS011;31062;49.678;24.560;2023-12-20T15:20:28;9.85;;;5.50;;
45326;SDS011;31062;49.678;24.560;2023-12-20T15:23:34;8.13;;;5.38;;
45326;SDS011;31062;49.678;24.560;2023-12-20T15:26:39;9.55;;;5.82;;
45326;SDS011;31062;49.678;24.560;2023-12-20T15:29:25;7.70;;;5.13;;
45326;SDS011;31062;49.678;24.560;2023-12-20T15:32:31;5.65;;;3.90;;
45326;SDS011;31062;49.678;24.560;2023-12-20T15:35:37;5.70;;;4.18;;
45326;SDS011;31062;49.678;24.560;2023-12-20T15:38:43;4.20;;;3.70;;
45326;SDS011;31062;49.678;24.560;2023-12-20T15:41:49;5.80;;;3.90;;
45326;SDS011;31062;49.678;24.560;2023-12-20T15:44:54;6.43;;;5.00;;
45326;SDS011;31062;49.678;24.560;2023-12-20T15:48:00;7.97;;;5.20;;
45326;SDS011;31062;49.678;24.560;2023-12-20T15:51:06;6.25;;;4.07;;
45326;SDS011;31062;49.678;24.560;2023-12-20T15:54:13;9.57;;;4.20;;
45326;SDS011;31062;49.678;24.560;2023-12-20T15:57:18;4.90;;;3.00;;
45326;SDS011;31062;49.678;24.560;2023-12-20T16:00:36;4.47;;;3.08;;
45326;SDS011;31062;49.678;24.560;2023-12-20T16:03:42;3.20;;;2.78;;
45326;SDS011;31062;49.678;24.560;2023-12-20T16:06:48;5.32;;;3.45;;
45326;SDS011;31062;49.678;24.560;2023-12-20T16:09:54;5.32;;;3.45;;
45326;SDS011;31062;49.678;24.560;2023-12-20T16:12:59;4.85;;;3.17;;
45326;SDS011;31062;49.678;24.560;2023-12-20T16:16:05;4.88;;;3.40;;
45326;SDS011;31062;49.678;24.560;2023-12-20T16:19:11;4.20;;;2.85;;
45326;SDS011;31062;49.678;24.560;2023-12-20T16:22:17;4.53;;;3.60;;
45326;SDS011;31062;49.678;24.560;2023-12-20T16:25:24;4.15;;;3.40;;
45326;SDS011;31062;49.678;24.560;2023-12-20T16:28:29;4.18;;;2.63;;
45326;SDS011;31062;49.678;24.560;2023-12-20T16:31:35;4.20;;;2.95;;
45326;SDS011;31062;49.678;24.560;2023-12-20T16:34:41;4.68;;;3.08;;
45326;SDS011;31062;49.678;24.560;2023-12-20T16:37:48;8.07;;;4.35;;
45326;SDS011;31062;49.678;24.560;2023-12-20T16:40:53;4.57;;;3.00;;
45326;SDS011;31062;49.678;24.560;2023-12-20T16:43:59;3.50;;;2.65;;
45326;SDS011;31062;49.678;24.560;2023-12-20T16:47:05;3.92;;;2.58;;
45326;SDS011;31062;49.678;24.560;2023-12-20T16:50:11;3.97;;;2.42;;
45326;SDS011;31062;49.678;24.560;2023-12-20T16:53:17;4.18;;;2.90;;
45326;SDS011;31062;49.678;24.560;2023-12-20T16:56:22;3.40;;;2.78;;
45326;SDS011;31062;49.678;24.560;2023-12-20T16:59:28;2.67;;;2.42;;
45326;SDS011;31062;49.678;24.560;2023-12-20T17:02:34;3.03;;;2.35;;
45326;SDS011;31062;49.678;24.560;2023-12-20T17:05:39;3.72;;;3.40;;
45326;SDS011;31062;49.678;24.560;2023-12-20T17:08:45;5.50;;;4.90;;
45326;SDS011;31062;49.678;24.560;2023-12-20T17:11:51;5.50;;;3.90;;
45326;SDS011;31062;49.678;24.560;2023-12-20T17:14:57;4.10;;;3.70;;
45326;SDS011;31062;49.678;24.560;2023-12-20T17:18:03;5.00;;;4.30;;
45326;SDS011;31062;49.678;24.560;2023-12-20T17:21:09;5.03;;;3.63;;
45326;SDS011;31062;49.678;24.560;2023-12-20T17:24:15;4.82;;;3.75;;
45326;SDS011;31062;49.678;24.560;2023-12-20T17:27:21;7.20;;;4.15;;
45326;SDS011;31062;49.678;24.560;2023-12-20T17:30:27;5.63;;;3.55;;
45326;SDS011;31062;49.678;24.560;2023-12-20T17:33:32;5.47;;;3.42;;
45326;SDS011;31062;49.678;24.560;2023-12-20T17:36:39;6.13;;;3.63;;
45326;SDS011;31062;49.678;24.560;2023-12-20T17:39:45;3.58;;;2.70;;
45326;SDS011;31062;49.678;24.560;2023-12-20T17:42:51;4.47;;;3.00;;
45326;SDS011;31062;49.678;24.560;2023-12-20T17:45:57;4.20;;;3.22;;
45326;SDS011;31062;49.678;24.560;2023-12-20T17:49:03;4.53;;;3.63;;
45326;SDS011;31062;49.678;24.560;2023-12-20T17:52:13;6.75;;;4.32;;
45326;SDS011;31062;49.678;24.560;2023-12-20T17:54:59;6.10;;;3.78;;
45326;SDS011;31062;49.678;24.560;2023-12-20T17:58:05;6.20;;;4.20;;
45326;SDS011;31062;49.678;24.560;2023-12-20T18:00:51;3.55;;;2.92;;
45326;SDS011;31062;49.678;24.560;2023-12-20T18:03:37;7.05;;;4.63;;